createdAt,value
2022-08-11T00:01:21.309Z,99208.94
2022-08-11T00:04:03.643Z,99210.19
2022-08-11T00:06:35.774Z,99216.63
2022-08-11T00:09:06.937Z,99206.69
2022-08-11T00:11:51.067Z,99209.38
2022-08-11T00:14:20.132Z,99209.56
2022-08-11T00:16:57.001Z,99207.94
2022-08-11T00:20:12.423Z,99206.06
2022-08-11T00:22:25.217Z,99203.63
2022-08-11T00:24:58.498Z,99207.34
2022-08-11T00:27:35.366Z,99203.03
2022-08-11T00:30:05.503Z,99212.72
2022-08-11T00:32:34.615Z,99201.97
2022-08-11T00:35:50.868Z,99200.34
2022-08-11T00:37:54.906Z,99205.72
2022-08-11T00:40:36.685Z,99200.34
2022-08-11T00:43:36.348Z,99200.34
2022-08-11T00:46:23.253Z,99191.19
2022-08-11T00:49:30.289Z,99200.34
2022-08-11T00:52:21.661Z,99198.66
2022-08-11T00:55:34.148Z,99188.97
2022-08-11T00:58:26.510Z,99200.75
2022-08-11T01:01:14.529Z,99202.44
2022-08-11T01:04:10.780Z,99196.19
2022-08-11T01:06:38.669Z,99191.88
2022-08-11T01:09:25.534Z,99194.56
2022-08-11T01:12:30.231Z,99191.28
2022-08-11T01:15:00.478Z,99193.16
2022-08-11T01:17:47.086Z,99191.28
2022-08-11T01:20:47.269Z,99192.09
2022-08-11T01:23:47.663Z,99193.75
2022-08-11T01:26:27.313Z,99185.69
2022-08-11T01:29:29.849Z,99192.09
2022-08-11T01:32:16.226Z,99188.59
2022-08-11T01:34:50.062Z,99181.56
2022-08-11T01:37:45.393Z,99181.56
2022-08-11T01:40:48.390Z,99179.91
2022-08-11T01:44:13.142Z,99185.88
2022-08-11T01:46:50.290Z,99186.09
2022-08-11T01:50:08.616Z,99187.78
2022-08-11T01:52:50.462Z,99185.28
2022-08-11T01:55:30.540Z,99192.53
2022-08-11T01:58:39.527Z,99189.84
2022-08-11T02:01:20.410Z,99188.78
2022-08-11T02:04:05.659Z,99189.25
2022-08-11T02:07:08.992Z,99187.59
2022-08-11T02:09:57.937Z,99183.28
2022-08-11T02:12:52.699Z,99182.47
2022-08-11T02:15:36.485Z,99191.34
2022-08-11T02:18:48.452Z,99188.06
2022-08-11T02:21:43.473Z,99190.13
2022-08-11T02:24:44.801Z,99192.00
2022-08-11T02:27:23.855Z,99195.53
2022-08-11T02:30:11.049Z,99183.56
2022-08-11T02:33:10.671Z,99186.47
2022-08-11T02:35:49.322Z,99187.53
2022-08-11T02:38:24.973Z,99183.19
2022-08-11T02:41:30.446Z,99183.19
2022-08-11T02:44:28.336Z,99184.00
2022-08-11T02:47:09.686Z,99186.91
2022-08-11T02:50:06.348Z,99183.41
2022-08-11T02:52:59.651Z,99184.44
2022-08-11T02:55:56.367Z,99189.00
2022-08-11T02:59:20.932Z,99187.38
2022-08-11T03:02:04.663Z,99180.53
2022-08-11T03:05:20.951Z,99181.38
2022-08-11T03:08:00.902Z,99188.63
2022-08-11T03:10:37.100Z,99185.94
2022-08-11T03:13:48.540Z,99187.81
2022-08-11T03:16:45.766Z,99187.81
2022-08-11T03:19:28.305Z,99185.56
2022-08-11T03:22:27.749Z,99200.66
2022-08-11T03:25:03.824Z,99197.34
2022-08-11T03:27:58.104Z,99200.28
2022-08-11T03:30:46.392Z,99194.91
2022-08-11T03:33:51.238Z,99193.25
2022-08-11T03:36:55.750Z,99189.53
2022-08-11T03:40:00.076Z,99197.00
2022-08-11T03:43:03.590Z,99197.00
2022-08-11T03:45:49.973Z,99203.41
2022-08-11T03:48:29.513Z,99194.72
2022-08-11T03:51:19.901Z,99193.09
2022-08-11T03:54:10.058Z,99189.59
2022-08-11T03:57:27.389Z,99206.94
2022-08-11T04:00:22.674Z,99199.91
2022-08-11T04:02:56.108Z,99192.13
2022-08-11T04:06:02.542Z,99191.53
2022-08-11T04:08:48.967Z,99190.50
2022-08-11T04:11:38.037Z,99193.78
2022-08-11T04:14:42.333Z,99193.78
2022-08-11T04:17:28.236Z,99193.78
2022-08-11T04:19:58.786Z,99193.78
2022-08-11T04:23:03.315Z,99184.28
2022-08-11T04:26:18.678Z,99183.44
2022-08-11T04:28:50.199Z,99185.94
2022-08-11T04:31:51.220Z,99180.56
2022-08-11T04:34:20.386Z,99186.31
2022-08-11T04:37:29.780Z,99187.13
2022-08-11T04:40:35.627Z,99185.41
2022-08-11T04:43:27.471Z,99184.56
2022-08-11T04:46:23.109Z,99184.16
2022-08-11T04:49:34.215Z,99186.97
2022-08-11T04:52:47.531Z,99188.78
2022-08-11T04:55:55.806Z,99190.06
2022-08-11T04:59:06.323Z,99190.81
2022-08-11T05:01:48.918Z,99190.53
2022-08-11T05:05:09.379Z,99189.75
2022-08-11T05:07:45.921Z,99191.47
2022-08-11T05:10:22.429Z,99191.97
2022-08-11T05:13:20.678Z,99189.94
2022-08-11T05:16:20.748Z,99196.19
2022-08-11T05:19:10.421Z,99193.34
2022-08-11T05:22:00.400Z,99187.19
2022-08-11T05:25:02.218Z,99193.00
2022-08-11T05:28:28.661Z,99192.25
2022-08-11T05:31:25.316Z,99185.22
2022-08-11T05:34:18.009Z,99189.56
2022-08-11T05:37:26.879Z,99188.53
2022-08-11T05:40:34.558Z,99193.06
2022-08-11T05:43:27.076Z,99195.53
2022-08-11T05:46:20.245Z,99207.50
2022-08-11T05:49:08.161Z,99200.47
2022-08-11T05:52:04.897Z,99203.44
2022-08-11T05:54:54.359Z,99207.81
2022-08-11T05:57:48.496Z,99202.22
2022-08-11T06:00:15.850Z,99213.13
2022-08-11T06:03:11.052Z,99209.19
2022-08-11T06:05:44.140Z,99207.56
2022-08-11T06:08:13.946Z,99208.81
2022-08-11T06:10:44.223Z,99214.63
2022-08-11T06:13:16.435Z,99217.16
2022-08-11T06:15:47.321Z,99222.06
2022-08-11T06:18:15.571Z,99218.34
2022-08-11T06:20:51.150Z,99224.94
2022-08-11T06:23:23.138Z,99223.06
2022-08-11T06:25:53.226Z,99225.72
2022-08-11T06:28:37.290Z,99226.47
2022-08-11T06:31:14.293Z,99223.78
2022-08-11T06:33:51.109Z,99222.75
2022-08-11T06:36:37.357Z,99224.41
2022-08-11T06:39:23.557Z,99228.50
2022-08-11T06:42:08.954Z,99225.59
2022-08-11T06:44:43.453Z,99223.53
2022-08-11T06:47:18.079Z,99227.41
2022-08-11T06:50:06.722Z,99221.63
2022-08-11T06:52:37.311Z,99227.59
2022-08-11T06:55:54.934Z,99227.19
2022-08-11T06:58:15.905Z,99225.53
2022-08-11T07:00:47.249Z,99222.25
2022-08-11T07:03:20.461Z,99220.00
2022-08-11T07:06:29.149Z,99223.28
2022-08-11T07:09:44.262Z,99214.59
2022-08-11T07:12:47.886Z,99213.34
2022-08-11T07:16:10.693Z,99212.53
2022-08-11T07:18:46.762Z,99209.97
2022-08-11T07:22:02.360Z,99205.22
2022-08-11T07:25:03.140Z,99220.91
2022-08-11T07:28:18.660Z,99200.88
2022-08-11T07:30:47.633Z,99209.97
2022-08-11T07:34:07.377Z,99202.97
2022-08-11T07:36:15.805Z,99210.44
2022-08-11T07:38:50.800Z,99198.63
2022-08-11T07:41:22.559Z,99204.75
2022-08-11T07:44:09.119Z,99202.06
2022-08-11T07:47:01.115Z,99208.03
2022-08-11T07:49:50.152Z,99212.41
2022-08-11T07:52:29.583Z,99205.97
2022-08-11T07:55:00.985Z,99209.72
2022-08-11T07:58:10.209Z,99202.66
2022-08-11T08:01:01.582Z,99208.66
2022-08-11T08:03:53.878Z,99214.03
2022-08-11T08:06:42.283Z,99206.34
2022-08-11T08:09:30.645Z,99206.75
2022-08-11T08:12:19.587Z,99207.16
2022-08-11T08:15:05.837Z,99212.13
2022-08-11T08:18:09.442Z,99200.31
2022-08-11T08:20:50.210Z,99198.88
2022-08-11T08:23:33.348Z,99195.13
2022-08-11T08:26:04.932Z,99197.59
2022-08-11T08:28:33.837Z,99196.59
2022-08-11T08:31:02.129Z,99190.13
2022-08-11T08:33:32.061Z,99187.66
2022-08-11T08:36:12.008Z,99198.81
2022-08-11T08:38:42.956Z,99190.34
2022-08-11T08:41:13.159Z,99189.31
2022-08-11T08:43:49.578Z,99189.69
2022-08-11T08:46:22.265Z,99190.06
2022-08-11T08:48:51.282Z,99185.50
2022-08-11T08:52:01.069Z,99182.22
2022-08-11T08:54:28.977Z,99177.28
2022-08-11T08:56:57.406Z,99174.00
2022-08-11T08:59:44.927Z,99179.97
2022-08-11T09:02:15.545Z,99178.50
2022-08-11T09:04:46.701Z,99170.19
2022-08-11T09:07:17.808Z,99176.41
2022-08-11T09:09:51.971Z,99177.44
2022-08-11T09:12:53.237Z,99175.34
2022-08-11T09:15:11.844Z,99174.31
2022-08-11T09:17:46.913Z,99171.63
2022-08-11T09:20:22.610Z,99186.72
2022-08-11T09:26:19.521Z,99173.09
2022-08-11T09:28:49.688Z,99176.41
2022-08-11T09:31:22.768Z,99168.31
2022-08-11T09:33:53.964Z,99169.97
2022-08-11T09:36:41.200Z,99166.25
2022-08-11T09:39:31.162Z,99160.47
2022-08-11T09:42:03.344Z,99149.50
2022-08-11T09:44:52.801Z,99159.19
2022-08-11T09:47:27.898Z,99155.47
2022-08-11T09:50:02.377Z,99147.00
2022-08-11T09:52:35.863Z,99153.22
2022-08-11T09:55:11.103Z,99151.13
2022-08-11T09:57:59.883Z,99150.69
2022-08-11T10:00:32.819Z,99154.41
2022-08-11T10:03:02.578Z,99149.63
2022-08-11T10:05:50.144Z,99138.19
2022-08-11T10:08:22.093Z,99144.41
2022-08-11T10:10:50.333Z,99143.56
2022-08-11T10:14:31.496Z,99133.06
2022-08-11T10:16:15.727Z,99138.66
2022-08-11T10:18:51.531Z,99138.88
2022-08-11T10:21:37.117Z,99133.69
2022-08-11T10:24:25.946Z,99126.59
2022-08-11T10:26:55.679Z,99113.28
2022-08-11T10:29:54.623Z,99124.03
2022-08-11T10:32:57.619Z,99124.91
2022-08-11T10:35:32.337Z,99118.06
2022-08-11T10:38:08.784Z,99120.75
2022-08-11T10:40:39.693Z,99118.66
2022-08-11T10:43:14.027Z,99112.03
2022-08-11T10:46:04.327Z,99111.56
2022-08-11T10:48:41.367Z,99102.09
2022-08-11T10:51:15.458Z,99100.59
2022-08-11T10:54:22.843Z,99087.84
2022-08-11T10:57:09.843Z,99089.47
2022-08-11T10:59:40.269Z,99101.91
2022-08-11T11:02:14.737Z,99086.56
2022-08-11T11:05:24.974Z,99084.25
2022-08-11T11:08:30.102Z,99086.50
2022-08-11T11:10:59.339Z,99077.16
2022-08-11T11:13:55.132Z,99060.16
2022-08-11T11:16:44.149Z,99056.44
2022-08-11T11:19:23.931Z,99051.28
2022-08-11T11:22:15.435Z,99050.81
2022-08-11T11:25:04.002Z,99042.88
2022-08-11T11:28:10.091Z,99045.44
2022-08-11T11:30:55.786Z,99046.72
2022-08-11T11:33:57.470Z,99045.91
2022-08-11T11:36:41.331Z,99045.91
2022-08-11T11:39:09.659Z,99042.97
2022-08-11T11:41:37.955Z,99044.59
2022-08-11T11:44:05.793Z,99024.72
2022-08-11T11:46:39.128Z,99033.25
2022-08-11T11:49:13.980Z,99032.66
2022-08-11T11:51:50.308Z,99033.91
2022-08-11T11:54:24.217Z,99022.75
2022-08-11T11:56:53.288Z,99029.22
2022-08-11T11:59:41.184Z,99023.72
2022-08-11T12:02:12.127Z,99022.84
2022-08-11T12:04:43.451Z,99027.22
2022-08-11T12:07:30.470Z,99023.81
2022-08-11T12:09:59.264Z,99019.78
2022-08-11T12:12:45.578Z,99017.25
2022-08-11T12:15:13.748Z,99010.09
2022-08-11T12:17:41.622Z,99025.44
2022-08-11T12:20:32.011Z,99017.81
2022-08-11T12:23:17.156Z,99003.91
2022-08-11T12:26:25.702Z,99005.53
2022-08-11T12:28:51.853Z,98999.69
2022-08-11T12:31:26.038Z,98999.69
2022-08-11T12:33:56.042Z,98998.78
2022-08-11T12:36:23.706Z,98991.03
2022-08-11T12:38:52.633Z,98989.63
2022-08-11T12:41:41.357Z,98986.44
2022-08-11T12:44:44.605Z,98984.13
2022-08-11T12:47:16.946Z,98982.84
2022-08-11T12:50:22.958Z,98973.72
2022-08-11T12:52:54.208Z,98964.13
2022-08-11T12:55:43.597Z,98962.00
2022-08-11T12:58:32.736Z,98962.59
2022-08-11T13:01:19.194Z,98956.38
2022-08-11T13:04:05.372Z,98953.66
2022-08-11T13:06:34.010Z,98957.53
2022-08-11T13:09:01.972Z,98961.53
2022-08-11T13:11:55.586Z,98960.84
2022-08-11T13:14:30.036Z,98961.75
2022-08-11T13:17:17.129Z,98963.06
2022-08-11T13:19:49.583Z,98960.94
2022-08-11T13:22:19.313Z,98957.56
2022-08-11T13:24:50.084Z,98951.69
2022-08-11T13:27:20.707Z,98940.91
2022-08-11T13:29:49.668Z,98949.56
2022-08-11T13:32:20.339Z,98948.06
2022-08-11T13:34:48.588Z,98936.78
2022-08-11T13:37:20.471Z,98946.91
2022-08-11T13:40:10.690Z,98937.53
2022-08-11T13:42:40.583Z,98948.75
2022-08-11T13:45:09.389Z,98977.56
2022-08-11T13:47:39.545Z,99019.72
2022-08-11T13:50:12.514Z,99028.88
2022-08-11T13:52:53.171Z,99044.56
2022-08-11T13:55:51.670Z,99054.00
2022-08-11T13:58:19.558Z,99041.09
2022-08-11T14:00:52.799Z,99059.47
2022-08-11T14:03:26.004Z,99058.19
2022-08-11T14:06:15.187Z,99063.59
2022-08-11T14:08:47.213Z,99062.53
2022-08-11T14:12:21.363Z,99067.34
2022-08-11T14:14:26.458Z,99071.91
2022-08-11T14:16:57.362Z,99069.66
2022-08-11T14:19:28.201Z,99067.81
2022-08-11T14:22:08.436Z,99070.50
2022-08-11T14:24:42.782Z,99063.25
2022-08-11T14:28:25.715Z,99064.06
2022-08-11T14:30:02.179Z,99065.13
2022-08-11T14:32:30.157Z,99055.75
2022-08-11T14:34:58.728Z,99051.19
2022-08-11T14:37:29.066Z,99055.50
2022-08-11T14:40:03.321Z,99051.78
2022-08-11T14:42:50.335Z,99050.72
2022-08-11T14:45:54.248Z,99047.78
2022-08-11T14:48:25.975Z,99036.59
2022-08-11T14:50:54.018Z,99034.22
2022-08-11T14:53:23.448Z,99034.81
2022-08-11T14:56:10.915Z,99042.53
2022-08-11T14:58:42.903Z,99033.41
2022-08-11T15:01:30.762Z,99043.50
2022-08-11T15:04:34.054Z,99046.78
2022-08-11T15:06:47.697Z,99043.59
2022-08-11T15:09:15.900Z,99061.31
2022-08-11T15:12:03.044Z,99058.03
2022-08-11T15:14:49.767Z,99061.88
2022-08-11T15:17:26.525Z,99054.53
2022-08-11T15:20:36.565Z,99051.97
2022-08-11T15:23:23.432Z,99055.25
2022-08-11T15:25:59.347Z,99050.22
2022-08-11T15:28:48.282Z,99051.63
2022-08-11T15:31:49.083Z,99041.44
2022-08-11T15:34:38.629Z,99044.25
2022-08-11T15:37:31.514Z,99039.44
2022-08-11T15:40:48.869Z,99043.31
2022-08-11T15:43:48.164Z,99044.13
2022-08-11T15:46:28.721Z,99033.59
2022-08-11T15:48:59.840Z,99033.00
2022-08-11T15:51:48.920Z,99027.63
2022-08-11T15:54:22.008Z,99022.69
2022-08-11T15:56:55.086Z,99028.88
2022-08-11T15:59:43.816Z,99027.63
2022-08-11T16:02:17.761Z,99029.72
2022-08-11T16:04:47.370Z,99030.53
2022-08-11T16:07:26.683Z,99034.53
2022-08-11T16:10:02.081Z,99032.28
2022-08-11T16:12:33.021Z,99039.34
2022-08-11T16:15:22.289Z,99051.41
2022-08-11T16:18:05.265Z,99047.53
2022-08-11T16:20:34.899Z,99048.94
2022-08-11T16:23:10.058Z,99045.66
2022-08-11T16:27:01.455Z,99029.47
2022-08-11T16:28:27.898Z,99027.81
2022-08-11T16:30:57.523Z,99030.50
2022-08-11T16:33:50.604Z,99020.00
2022-08-11T16:36:34.253Z,99018.91
2022-08-11T16:39:03.697Z,99020.81
2022-08-11T16:41:52.913Z,99021.88
2022-08-11T16:44:41.003Z,99012.94
2022-08-11T16:47:16.299Z,99018.00
2022-08-11T16:49:47.148Z,99016.34
2022-08-11T16:52:23.249Z,99009.91
2022-08-11T16:54:52.657Z,99012.25
2022-08-11T16:57:45.109Z,99004.38
2022-08-11T17:00:15.478Z,99004.88
2022-08-11T17:03:12.201Z,99003.19
2022-08-11T17:06:07.800Z,99007.78
2022-08-11T17:08:57.551Z,98998.28
2022-08-11T17:11:52.495Z,99002.88
2022-08-11T17:14:35.189Z,99009.06
2022-08-11T17:17:09.432Z,99000.41
2022-08-11T17:20:38.304Z,99000.88
2022-08-11T17:22:48.931Z,98999.69
2022-08-11T17:25:18.442Z,98997.59
2022-08-11T17:27:48.748Z,99006.25
2022-08-11T17:30:16.458Z,98999.00
2022-08-11T17:33:07.428Z,99000.41
2022-08-11T17:35:39.366Z,99000.41
2022-08-11T17:38:18.840Z,98997.47
2022-08-11T17:41:23.112Z,98999.09
2022-08-11T17:44:12.713Z,98990.22
2022-08-11T17:47:05.720Z,98999.91
2022-08-11T17:49:38.022Z,98999.09
2022-08-11T17:52:26.120Z,98998.28
2022-08-11T17:55:13.685Z,98994.53
2022-08-11T17:58:01.622Z,98999.09
2022-08-11T18:00:31.041Z,98992.31
2022-08-11T18:03:19.978Z,98998.78
2022-08-11T18:05:49.402Z,98989.03
2022-08-11T18:08:38.848Z,98995.00
2022-08-11T18:12:11.953Z,98999.59
2022-08-11T18:14:34.581Z,98987.75
2022-08-11T18:17:20.753Z,98989.63
2022-08-11T18:20:07.545Z,98996.66
2022-08-11T18:22:59.479Z,98998.28
2022-08-11T18:25:52.684Z,98993.97
2022-08-11T18:28:46.828Z,98998.78
2022-08-11T18:31:36.311Z,99001.22
2022-08-11T18:34:29.212Z,99005.31
2022-08-11T18:37:29.104Z,99003.47
2022-08-11T18:40:20.533Z,99017.75
2022-08-11T18:43:08.232Z,99014.81
2022-08-11T18:46:06.689Z,99026.41
2022-08-11T18:48:57.737Z,99024.75
2022-08-11T18:51:46.672Z,99019.38
2022-08-11T18:54:35.947Z,99028.50
2022-08-11T18:57:26.375Z,99033.31
2022-08-11T19:00:14.700Z,99023.00
2022-08-11T19:03:03.035Z,99036.91
2022-08-11T19:06:31.919Z,99032.00
2022-08-11T19:09:05.206Z,99031.19
2022-08-11T19:11:53.773Z,99036.59
2022-08-11T19:14:41.332Z,99026.84
2022-08-11T19:17:44.241Z,99037.84
2022-08-11T19:20:37.430Z,99033.53
2022-08-11T19:23:27.540Z,99037.50
2022-08-11T19:26:16.040Z,99035.84
2022-08-11T19:29:07.863Z,99032.13
2022-08-11T19:31:55.896Z,99027.75
2022-08-11T19:34:51.405Z,99028.00
2022-08-11T19:37:44.272Z,99030.13
2022-08-11T19:40:35.377Z,99030.56
2022-08-11T19:43:26.521Z,99029.16
2022-08-11T19:46:20.205Z,99031.22
2022-08-11T19:49:10.925Z,99034.72
2022-08-11T19:52:01.185Z,99027.13
2022-08-11T19:54:52.939Z,99019.03
2022-08-11T19:57:45.383Z,99017.38
2022-08-11T20:00:39.113Z,99022.75
2022-08-11T20:03:30.503Z,99019.47
2022-08-11T20:06:26.326Z,99020.41
2022-08-11T20:09:17.626Z,99017.13
2022-08-11T20:12:08.891Z,99011.75
2022-08-11T20:14:59.565Z,99013.84
2022-08-11T20:17:52.170Z,99015.47
2022-08-11T20:20:40.075Z,99014.44
2022-08-11T20:23:28.857Z,99011.59
2022-08-11T20:26:30.814Z,99012.66
2022-08-11T20:29:19.493Z,99020.13
2022-08-11T20:32:09.296Z,99011.47
2022-08-11T20:34:59.871Z,99005.97
2022-08-11T20:37:51.377Z,99001.63
2022-08-11T20:40:43.660Z,98995.41
2022-08-11T20:44:07.821Z,99006.19
2022-08-11T20:46:46.027Z,99004.31
2022-08-11T20:49:45.324Z,99008.66
2022-08-11T20:52:39.700Z,99014.03
2022-08-11T20:55:45.670Z,99015.66
2022-08-11T21:01:44.149Z,99017.75
2022-08-11T21:04:30.153Z,99025.84
2022-08-11T21:07:28.092Z,99022.94
2022-08-11T21:10:28.635Z,99025.16
2022-08-11T21:13:24.208Z,99020.59
2022-08-11T21:16:25.969Z,99025.16
2022-08-11T21:19:18.808Z,99025.41
2022-08-11T21:22:27.975Z,99022.69
2022-08-11T21:25:17.748Z,99016.47
2022-08-11T21:28:08.766Z,99016.03
2022-08-11T21:30:57.615Z,99021.63
2022-08-11T21:33:47.686Z,99019.75
2022-08-11T21:36:36.042Z,99019.75
2022-08-11T21:39:25.440Z,99018.94
2022-08-11T21:42:13.206Z,99028.91
2022-08-11T21:45:01.788Z,99032.88
2022-08-11T21:48:00.791Z,99023.97
2022-08-11T21:50:48.016Z,99030.19
2022-08-11T21:53:34.737Z,99030.19
2022-08-11T21:56:22.442Z,99022.53
2022-08-11T21:59:15.950Z,99031.44
2022-08-11T22:02:03.561Z,99031.69
2022-08-11T22:04:50.700Z,99033.56
2022-08-11T22:07:39.359Z,99029.00
2022-08-11T22:10:40.865Z,99034.38
2022-08-11T22:13:29.037Z,99035.19
2022-08-11T22:16:16.090Z,99042.19
2022-08-11T22:19:05.071Z,99036.00
2022-08-11T22:22:02.636Z,99039.50
2022-08-11T22:24:51.891Z,99036.00
2022-08-11T22:27:38.964Z,99034.38
2022-08-11T22:30:29.210Z,99035.19
2022-08-11T22:33:19.236Z,99039.75
2022-08-11T22:36:14.185Z,99030.03
2022-08-11T22:39:03.809Z,99031.09
2022-08-11T22:41:50.136Z,99032.97
2022-08-11T22:44:36.349Z,99033.19
2022-08-11T22:47:27.395Z,99039.00
2022-08-11T22:50:25.588Z,99039.84
2022-08-11T22:53:14.032Z,99035.75
2022-08-11T22:56:00.201Z,99035.75
2022-08-11T22:58:48.137Z,99037.38
2022-08-11T23:01:38.412Z,99031.38
2022-08-11T23:04:43.377Z,99023.31
2022-08-11T23:07:51.534Z,99028.69
2022-08-11T23:10:36.853Z,99024.38
2022-08-11T23:13:23.509Z,99022.50
2022-08-11T23:16:10.333Z,99019.22
2022-08-11T23:18:58.184Z,99020.94
2022-08-11T23:21:46.645Z,99024.09
2022-08-11T23:24:33.749Z,99017.66
2022-08-11T23:27:21.637Z,99006.88
2022-08-11T23:30:11.303Z,99006.06
2022-08-11T23:32:57.914Z,99001.50
2022-08-11T23:35:53.811Z,99004.19
2022-08-11T23:38:42.593Z,99002.56
2022-08-11T23:41:31.684Z,99000.91
2022-08-11T23:44:20.164Z,99004.44
2022-08-11T23:47:13.325Z,99002.78
2022-08-11T23:50:00.434Z,98999.88
2022-08-11T23:52:49.214Z,99003.00
2022-08-11T23:55:39.621Z,99001.97
2022-08-11T23:58:26.658Z,98990.81
